sensor_id;sensor_type;location;lat;lon;timestamp;P1;durP1;ratioP1;P2;durP2;ratioP2
72379;SDS011;60354;47.798;12.472;2023-08-01T00:00:00;3.00;;;1.90;;
72379;SDS011;60354;47.798;12.472;2023-08-01T00:02:36;4.15;;;1.73;;
72379;SDS011;60354;47.798;12.472;2023-08-01T00:05:02;4.07;;;1.95;;
72379;SDS011;60354;47.798;12.472;2023-08-01T00:07:28;3.45;;;1.85;;
72379;SDS011;60354;47.798;12.472;2023-08-01T00:09:54;3.92;;;2.03;;
72379;SDS011;60354;47.798;12.472;2023-08-01T00:12:19;3.38;;;2.00;;
72379;SDS011;60354;47.798;12.472;2023-08-01T00:14:45;4.40;;;2.00;;
72379;SDS011;60354;47.798;12.472;2023-08-01T00:17:10;3.22;;;1.98;;
72379;SDS011;60354;47.798;12.472;2023-08-01T00:19:36;4.30;;;2.10;;
72379;SDS011;60354;47.798;12.472;2023-08-01T00:22:02;5.05;;;2.10;;
72379;SDS011;60354;47.798;12.472;2023-08-01T00:24:27;3.47;;;2.20;;
72379;SDS011;60354;47.798;12.472;2023-08-01T00:26:53;6.18;;;2.63;;
72379;SDS011;60354;47.798;12.472;2023-08-01T00:29:20;4.38;;;2.40;;
72379;SDS011;60354;47.798;12.472;2023-08-01T00:31:46;7.10;;;2.38;;
72379;SDS011;60354;47.798;12.472;2023-08-01T00:34:12;3.67;;;2.00;;
72379;SDS011;60354;47.798;12.472;2023-08-01T00:36:37;5.15;;;2.60;;
72379;SDS011;60354;47.798;12.472;2023-08-01T00:39:03;4.10;;;2.55;;
72379;SDS011;60354;47.798;12.472;2023-08-01T00:41:28;4.70;;;2.72;;
72379;SDS011;60354;47.798;12.472;2023-08-01T00:43:54;5.45;;;2.50;;
72379;SDS011;60354;47.798;12.472;2023-08-01T00:46:19;4.65;;;2.47;;
72379;SDS011;60354;47.798;12.472;2023-08-01T00:48:45;3.75;;;2.25;;
72379;SDS011;60354;47.798;12.472;2023-08-01T00:51:11;4.20;;;2.05;;
72379;SDS011;60354;47.798;12.472;2023-08-01T00:53:37;3.53;;;2.10;;
72379;SDS011;60354;47.798;12.472;2023-08-01T00:56:03;3.13;;;2.20;;
72379;SDS011;60354;47.798;12.472;2023-08-01T00:58:29;4.45;;;2.40;;
72379;SDS011;60354;47.798;12.472;2023-08-01T01:00:54;4.13;;;2.60;;
72379;SDS011;60354;47.798;12.472;2023-08-01T01:03:24;4.45;;;2.33;;
72379;SDS011;60354;47.798;12.472;2023-08-01T01:05:56;4.03;;;2.30;;
72379;SDS011;60354;47.798;12.472;2023-08-01T01:08:27;7.05;;;2.90;;
72379;SDS011;60354;47.798;12.472;2023-08-01T01:10:52;3.85;;;2.40;;
72379;SDS011;60354;47.798;12.472;2023-08-01T01:13:18;6.07;;;2.50;;
72379;SDS011;60354;47.798;12.472;2023-08-01T01:15:43;4.57;;;2.60;;
72379;SDS011;60354;47.798;12.472;2023-08-01T01:18:09;3.58;;;2.40;;
72379;SDS011;60354;47.798;12.472;2023-08-01T01:20:34;4.65;;;2.40;;
72379;SDS011;60354;47.798;12.472;2023-08-01T01:23:01;4.75;;;2.40;;
72379;SDS011;60354;47.798;12.472;2023-08-01T01:25:29;5.00;;;2.42;;
72379;SDS011;60354;47.798;12.472;2023-08-01T01:27:55;3.85;;;2.20;;
72379;SDS011;60354;47.798;12.472;2023-08-01T01:30:21;5.10;;;2.40;;
72379;SDS011;60354;47.798;12.472;2023-08-01T01:32:47;4.25;;;2.58;;
72379;SDS011;60354;47.798;12.472;2023-08-01T01:35:14;3.17;;;2.28;;
72379;SDS011;60354;47.798;12.472;2023-08-01T01:37:39;4.50;;;2.50;;
72379;SDS011;60354;47.798;12.472;2023-08-01T01:40:05;6.82;;;2.50;;
72379;SDS011;60354;47.798;12.472;2023-08-01T01:42:31;5.78;;;2.45;;
72379;SDS011;60354;47.798;12.472;2023-08-01T01:44:57;4.75;;;2.40;;
72379;SDS011;60354;47.798;12.472;2023-08-01T01:47:22;4.47;;;2.28;;
72379;SDS011;60354;47.798;12.472;2023-08-01T01:49:48;5.60;;;2.47;;
72379;SDS011;60354;47.798;12.472;2023-08-01T01:52:13;5.05;;;2.35;;
72379;SDS011;60354;47.798;12.472;2023-08-01T01:54:39;4.00;;;2.33;;
72379;SDS011;60354;47.798;12.472;2023-08-01T01:57:04;4.28;;;2.50;;
72379;SDS011;60354;47.798;12.472;2023-08-01T01:59:30;4.18;;;2.47;;
72379;SDS011;60354;47.798;12.472;2023-08-01T02:01:55;3.75;;;2.50;;
72379;SDS011;60354;47.798;12.472;2023-08-01T02:04:21;3.92;;;2.50;;
72379;SDS011;60354;47.798;12.472;2023-08-01T02:06:46;4.15;;;2.50;;
72379;SDS011;60354;47.798;12.472;2023-08-01T02:09:13;3.80;;;2.50;;
72379;SDS011;60354;47.798;12.472;2023-08-01T02:11:38;10.50;;;2.78;;
72379;SDS011;60354;47.798;12.472;2023-08-01T02:14:04;5.03;;;2.65;;
72379;SDS011;60354;47.798;12.472;2023-08-01T02:16:29;4.13;;;2.28;;
72379;SDS011;60354;47.798;12.472;2023-08-01T02:18:55;4.75;;;2.72;;
72379;SDS011;60354;47.798;12.472;2023-08-01T02:21:20;5.63;;;2.50;;
72379;SDS011;60354;47.798;12.472;2023-08-01T02:23:46;4.90;;;2.60;;
72379;SDS011;60354;47.798;12.472;2023-08-01T02:26:11;3.40;;;2.33;;
72379;SDS011;60354;47.798;12.472;2023-08-01T02:28:37;5.43;;;2.50;;
72379;SDS011;60354;47.798;12.472;2023-08-01T02:31:02;6.75;;;2.50;;
72379;SDS011;60354;47.798;12.472;2023-08-01T02:33:28;5.15;;;2.75;;
72379;SDS011;60354;47.798;12.472;2023-08-01T02:35:53;4.35;;;2.65;;
72379;SDS011;60354;47.798;12.472;2023-08-01T02:38:19;5.50;;;2.45;;
72379;SDS011;60354;47.798;12.472;2023-08-01T02:40:44;5.10;;;2.65;;
72379;SDS011;60354;47.798;12.472;2023-08-01T02:43:10;7.88;;;2.90;;
72379;SDS011;60354;47.798;12.472;2023-08-01T02:45:35;3.83;;;2.50;;
72379;SDS011;60354;47.798;12.472;2023-08-01T02:48:01;8.20;;;2.80;;
72379;SDS011;60354;47.798;12.472;2023-08-01T02:50:26;4.13;;;2.58;;
72379;SDS011;60354;47.798;12.472;2023-08-01T02:52:52;5.57;;;2.92;;
72379;SDS011;60354;47.798;12.472;2023-08-01T02:55:17;5.75;;;2.70;;
72379;SDS011;60354;47.798;12.472;2023-08-01T02:57:43;6.70;;;2.65;;
72379;SDS011;60354;47.798;12.472;2023-08-01T03:00:09;4.30;;;2.75;;
72379;SDS011;60354;47.798;12.472;2023-08-01T03:02:37;7.22;;;2.53;;
72379;SDS011;60354;47.798;12.472;2023-08-01T03:05:05;4.82;;;2.80;;
72379;SDS011;60354;47.798;12.472;2023-08-01T03:07:32;4.30;;;2.78;;
72379;SDS011;60354;47.798;12.472;2023-08-01T03:09:58;5.18;;;2.78;;
72379;SDS011;60354;47.798;12.472;2023-08-01T03:12:23;6.20;;;2.58;;
72379;SDS011;60354;47.798;12.472;2023-08-01T03:14:49;3.88;;;2.92;;
72379;SDS011;60354;47.798;12.472;2023-08-01T03:17:14;5.32;;;2.60;;
72379;SDS011;60354;47.798;12.472;2023-08-01T03:19:41;5.95;;;2.45;;
72379;SDS011;60354;47.798;12.472;2023-08-01T03:22:06;4.18;;;2.70;;
72379;SDS011;60354;47.798;12.472;2023-08-01T03:24:32;4.43;;;2.50;;
72379;SDS011;60354;47.798;12.472;2023-08-01T03:26:59;5.43;;;2.70;;
72379;SDS011;60354;47.798;12.472;2023-08-01T03:29:24;3.58;;;2.50;;
72379;SDS011;60354;47.798;12.472;2023-08-01T03:31:50;6.10;;;2.80;;
72379;SDS011;60354;47.798;12.472;2023-08-01T03:34:15;4.57;;;2.72;;
72379;SDS011;60354;47.798;12.472;2023-08-01T03:36:41;5.07;;;2.60;;
72379;SDS011;60354;47.798;12.472;2023-08-01T03:39:07;4.72;;;2.78;;
72379;SDS011;60354;47.798;12.472;2023-08-01T03:41:35;5.72;;;2.70;;
72379;SDS011;60354;47.798;12.472;2023-08-01T03:44:01;4.38;;;2.80;;
72379;SDS011;60354;47.798;12.472;2023-08-01T03:46:26;4.93;;;2.95;;
72379;SDS011;60354;47.798;12.472;2023-08-01T03:48:52;4.05;;;2.75;;
72379;SDS011;60354;47.798;12.472;2023-08-01T03:51:17;4.95;;;2.72;;
72379;SDS011;60354;47.798;12.472;2023-08-01T03:53:44;5.03;;;2.67;;
72379;SDS011;60354;47.798;12.472;2023-08-01T03:56:10;4.53;;;2.70;;
72379;SDS011;60354;47.798;12.472;2023-08-01T03:58:36;5.53;;;2.63;;
72379;SDS011;60354;47.798;12.472;2023-08-01T04:01:02;4.13;;;2.65;;
72379;SDS011;60354;47.798;12.472;2023-08-01T04:03:27;4.60;;;2.85;;
72379;SDS011;60354;47.798;12.472;2023-08-01T04:05:53;4.78;;;2.70;;
72379;SDS011;60354;47.798;12.472;2023-08-01T04:08:19;6.90;;;2.90;;
72379;SDS011;60354;47.798;12.472;2023-08-01T04:10:45;5.68;;;2.65;;
72379;SDS011;60354;47.798;12.472;2023-08-01T04:13:10;6.30;;;2.67;;
72379;SDS011;60354;47.798;12.472;2023-08-01T04:15:36;4.80;;;2.78;;
72379;SDS011;60354;47.798;12.472;2023-08-01T04:18:01;5.15;;;3.00;;
72379;SDS011;60354;47.798;12.472;2023-08-01T04:20:27;4.90;;;2.95;;
72379;SDS011;60354;47.798;12.472;2023-08-01T04:22:52;5.00;;;2.75;;
72379;SDS011;60354;47.798;12.472;2023-08-01T04:25:18;5.78;;;2.60;;
72379;SDS011;60354;47.798;12.472;2023-08-01T04:27:43;4.63;;;2.97;;
72379;SDS011;60354;47.798;12.472;2023-08-01T04:30:09;4.05;;;2.65;;
72379;SDS011;60354;47.798;12.472;2023-08-01T04:32:35;3.72;;;2.50;;
72379;SDS011;60354;47.798;12.472;2023-08-01T04:35:00;4.13;;;2.70;;
72379;SDS011;60354;47.798;12.472;2023-08-01T04:37:26;4.43;;;2.60;;
72379;SDS011;60354;47.798;12.472;2023-08-01T04:39:51;4.35;;;2.80;;
72379;SDS011;60354;47.798;12.472;2023-08-01T04:42:17;4.28;;;2.90;;
72379;SDS011;60354;47.798;12.472;2023-08-01T04:44:42;5.22;;;2.70;;
72379;SDS011;60354;47.798;12.472;2023-08-01T04:47:07;3.75;;;2.55;;
72379;SDS011;60354;47.798;12.472;2023-08-01T04:49:33;4.78;;;2.90;;
72379;SDS011;60354;47.798;12.472;2023-08-01T04:51:58;4.45;;;2.80;;
72379;SDS011;60354;47.798;12.472;2023-08-01T04:54:25;5.30;;;2.70;;
72379;SDS011;60354;47.798;12.472;2023-08-01T04:56:50;5.28;;;2.97;;
72379;SDS011;60354;47.798;12.472;2023-08-01T04:59:16;4.88;;;2.80;;
72379;SDS011;60354;47.798;12.472;2023-08-01T05:01:41;5.95;;;2.80;;
72379;SDS011;60354;47.798;12.472;2023-08-01T05:04:07;4.38;;;2.75;;
72379;SDS011;60354;47.798;12.472;2023-08-01T05:06:32;7.07;;;2.80;;
72379;SDS011;60354;47.798;12.472;2023-08-01T05:08:58;5.72;;;2.83;;
72379;SDS011;60354;47.798;12.472;2023-08-01T05:11:23;4.68;;;2.78;;
72379;SDS011;60354;47.798;12.472;2023-08-01T05:13:49;4.22;;;2.67;;
72379;SDS011;60354;47.798;12.472;2023-08-01T05:16:14;4.68;;;2.90;;
72379;SDS011;60354;47.798;12.472;2023-08-01T05:18:40;5.55;;;3.08;;
72379;SDS011;60354;47.798;12.472;2023-08-01T05:21:05;3.63;;;2.70;;
72379;SDS011;60354;47.798;12.472;2023-08-01T05:23:31;5.70;;;2.50;;
72379;SDS011;60354;47.798;12.472;2023-08-01T05:25:56;8.02;;;3.03;;
72379;SDS011;60354;47.798;12.472;2023-08-01T05:28:22;5.90;;;2.80;;
72379;SDS011;60354;47.798;12.472;2023-08-01T05:30:47;5.47;;;3.03;;
72379;SDS011;60354;47.798;12.472;2023-08-01T05:33:13;5.93;;;3.10;;
72379;SDS011;60354;47.798;12.472;2023-08-01T05:35:41;5.25;;;3.13;;
72379;SDS011;60354;47.798;12.472;2023-08-01T05:38:06;6.75;;;2.78;;
72379;SDS011;60354;47.798;12.472;2023-08-01T05:40:32;5.07;;;3.00;;
72379;SDS011;60354;47.798;12.472;2023-08-01T05:42:57;5.13;;;2.83;;
72379;SDS011;60354;47.798;12.472;2023-08-01T05:45:23;6.05;;;2.80;;
72379;SDS011;60354;47.798;12.472;2023-08-01T05:47:48;3.67;;;2.70;;
72379;SDS011;60354;47.798;12.472;2023-08-01T05:50:14;8.43;;;3.10;;
72379;SDS011;60354;47.798;12.472;2023-08-01T05:52:39;5.35;;;3.17;;
72379;SDS011;60354;47.798;12.472;2023-08-01T05:55:05;5.18;;;2.72;;
72379;SDS011;60354;47.798;12.472;2023-08-01T05:57:31;4.38;;;2.90;;
72379;SDS011;60354;47.798;12.472;2023-08-01T05:59:56;5.05;;;3.08;;
72379;SDS011;60354;47.798;12.472;2023-08-01T06:02:22;4.30;;;2.80;;
72379;SDS011;60354;47.798;12.472;2023-08-01T06:04:47;6.13;;;3.08;;
72379;SDS011;60354;47.798;12.472;2023-08-01T06:07:13;5.50;;;3.10;;
72379;SDS011;60354;47.798;12.472;2023-08-01T06:09:38;5.63;;;3.13;;
72379;SDS011;60354;47.798;12.472;2023-08-01T06:12:04;6.00;;;3.05;;
72379;SDS011;60354;47.798;12.472;2023-08-01T06:14:30;5.50;;;3.17;;
72379;SDS011;60354;47.798;12.472;2023-08-01T06:16:55;4.60;;;3.00;;
72379;SDS011;60354;47.798;12.472;2023-08-01T06:19:21;5.43;;;3.03;;
72379;SDS011;60354;47.798;12.472;2023-08-01T06:21:46;5.45;;;3.15;;
72379;SDS011;60354;47.798;12.472;2023-08-01T06:24:11;5.35;;;3.30;;
72379;SDS011;60354;47.798;12.472;2023-08-01T06:26:37;7.70;;;3.30;;
72379;SDS011;60354;47.798;12.472;2023-08-01T06:29:02;4.55;;;3.20;;
72379;SDS011;60354;47.798;12.472;2023-08-01T06:31:28;4.85;;;3.00;;
72379;SDS011;60354;47.798;12.472;2023-08-01T06:33:53;4.70;;;3.28;;
72379;SDS011;60354;47.798;12.472;2023-08-01T06:36:19;5.32;;;3.30;;
72379;SDS011;60354;47.798;12.472;2023-08-01T06:38:45;8.32;;;3.33;;
72379;SDS011;60354;47.798;12.472;2023-08-01T06:41:11;5.57;;;3.83;;
72379;SDS011;60354;47.798;12.472;2023-08-01T06:43:36;4.93;;;2.95;;
72379;SDS011;60354;47.798;12.472;2023-08-01T06:46:03;4.95;;;2.88;;
72379;SDS011;60354;47.798;12.472;2023-08-01T06:48:29;5.22;;;3.25;;
72379;SDS011;60354;47.798;12.472;2023-08-01T06:50:54;6.50;;;3.33;;
72379;SDS011;60354;47.798;12.472;2023-08-01T06:53:20;4.78;;;3.00;;
72379;SDS011;60354;47.798;12.472;2023-08-01T06:55:46;4.65;;;3.13;;
72379;SDS011;60354;47.798;12.472;2023-08-01T06:58:11;4.93;;;2.95;;
72379;SDS011;60354;47.798;12.472;2023-08-01T07:00:37;4.15;;;3.00;;
72379;SDS011;60354;47.798;12.472;2023-08-01T07:03:02;4.07;;;2.85;;
72379;SDS011;60354;47.798;12.472;2023-08-01T07:05:28;4.38;;;2.97;;
72379;SDS011;60354;47.798;12.472;2023-08-01T07:07:54;4.30;;;2.80;;
72379;SDS011;60354;47.798;12.472;2023-08-01T07:10:19;5.00;;;3.08;;
72379;SDS011;60354;47.798;12.472;2023-08-01T07:12:45;4.75;;;3.00;;
72379;SDS011;60354;47.798;12.472;2023-08-01T07:15:10;5.30;;;2.70;;
72379;SDS011;60354;47.798;12.472;2023-08-01T07:17:36;4.30;;;2.72;;
72379;SDS011;60354;47.798;12.472;2023-08-01T07:20:01;5.63;;;2.67;;
72379;SDS011;60354;47.798;12.472;2023-08-01T07:22:27;4.95;;;2.67;;
72379;SDS011;60354;47.798;12.472;2023-08-01T07:24:53;4.53;;;2.92;;
72379;SDS011;60354;47.798;12.472;2023-08-01T07:27:19;5.03;;;2.92;;
72379;SDS011;60354;47.798;12.472;2023-08-01T07:29:44;6.63;;;3.42;;
72379;SDS011;60354;47.798;12.472;2023-08-01T07:32:10;4.53;;;2.83;;
72379;SDS011;60354;47.798;12.472;2023-08-01T07:34:36;6.00;;;2.90;;
72379;SDS011;60354;47.798;12.472;2023-08-01T07:37:01;4.65;;;2.95;;
72379;SDS011;60354;47.798;12.472;2023-08-01T07:39:27;5.70;;;3.00;;
72379;SDS011;60354;47.798;12.472;2023-08-01T07:41:52;4.35;;;2.72;;
72379;SDS011;60354;47.798;12.472;2023-08-01T07:44:18;5.63;;;3.10;;
72379;SDS011;60354;47.798;12.472;2023-08-01T07:46:43;5.47;;;3.00;;
72379;SDS011;60354;47.798;12.472;2023-08-01T07:49:09;5.70;;;3.30;;
72379;SDS011;60354;47.798;12.472;2023-08-01T07:51:34;4.70;;;2.92;;
72379;SDS011;60354;47.798;12.472;2023-08-01T07:54:00;5.63;;;2.97;;
72379;SDS011;60354;47.798;12.472;2023-08-01T07:56:25;5.53;;;3.38;;
72379;SDS011;60354;47.798;12.472;2023-08-01T07:58:51;4.80;;;2.83;;
72379;SDS011;60354;47.798;12.472;2023-08-01T08:01:16;4.00;;;2.70;;
72379;SDS011;60354;47.798;12.472;2023-08-01T08:03:41;5.25;;;2.85;;
72379;SDS011;60354;47.798;12.472;2023-08-01T08:06:07;4.70;;;3.20;;
72379;SDS011;60354;47.798;12.472;2023-08-01T08:08:32;4.85;;;2.88;;
72379;SDS011;60354;47.798;12.472;2023-08-01T08:10:58;5.10;;;3.03;;
72379;SDS011;60354;47.798;12.472;2023-08-01T08:13:24;5.00;;;2.92;;
72379;SDS011;60354;47.798;12.472;2023-08-01T08:15:50;4.28;;;2.80;;
72379;SDS011;60354;47.798;12.472;2023-08-01T08:18:16;6.20;;;2.90;;
72379;SDS011;60354;47.798;12.472;2023-08-01T08:20:43;5.28;;;3.17;;
72379;SDS011;60354;47.798;12.472;2023-08-01T08:23:10;4.45;;;3.00;;
72379;SDS011;60354;47.798;12.472;2023-08-01T08:25:39;5.25;;;2.83;;
72379;SDS011;60354;47.798;12.472;2023-08-01T08:28:05;5.07;;;3.00;;
72379;SDS011;60354;47.798;12.472;2023-08-01T08:30:30;5.45;;;3.20;;
72379;SDS011;60354;47.798;12.472;2023-08-01T08:32:57;5.53;;;2.90;;
72379;SDS011;60354;47.798;12.472;2023-08-01T08:35:23;5.65;;;2.95;;
72379;SDS011;60354;47.798;12.472;2023-08-01T08:37:49;4.85;;;2.78;;
72379;SDS011;60354;47.798;12.472;2023-08-01T08:40:14;3.45;;;2.42;;
72379;SDS011;60354;47.798;12.472;2023-08-01T08:42:40;4.00;;;2.65;;
72379;SDS011;60354;47.798;12.472;2023-08-01T08:45:06;4.43;;;2.58;;
72379;SDS011;60354;47.798;12.472;2023-08-01T08:47:34;3.60;;;2.45;;
72379;SDS011;60354;47.798;12.472;2023-08-01T08:50:01;4.90;;;2.78;;
72379;SDS011;60354;47.798;12.472;2023-08-01T08:52:27;4.05;;;2.75;;
72379;SDS011;60354;47.798;12.472;2023-08-01T08:54:52;4.07;;;2.88;;
72379;SDS011;60354;47.798;12.472;2023-08-01T08:57:18;4.60;;;2.72;;
72379;SDS011;60354;47.798;12.472;2023-08-01T08:59:46;3.67;;;2.90;;
72379;SDS011;60354;47.798;12.472;2023-08-01T09:02:12;4.85;;;2.83;;
72379;SDS011;60354;47.798;12.472;2023-08-01T09:04:40;3.95;;;2.53;;
72379;SDS011;60354;47.798;12.472;2023-08-01T09:07:09;4.45;;;2.53;;
72379;SDS011;60354;47.798;12.472;2023-08-01T09:09:36;5.15;;;2.70;;
72379;SDS011;60354;47.798;12.472;2023-08-01T09:12:02;4.03;;;2.67;;
72379;SDS011;60354;47.798;12.472;2023-08-01T09:14:29;4.55;;;2.90;;
72379;SDS011;60354;47.798;12.472;2023-08-01T09:16:54;3.67;;;2.60;;
72379;SDS011;60354;47.798;12.472;2023-08-01T09:19:23;4.82;;;2.65;;
72379;SDS011;60354;47.798;12.472;2023-08-01T09:21:50;5.13;;;2.70;;
72379;SDS011;60354;47.798;12.472;2023-08-01T09:24:16;3.65;;;2.42;;
72379;SDS011;60354;47.798;12.472;2023-08-01T09:26:44;4.32;;;2.70;;
72379;SDS011;60354;47.798;12.472;2023-08-01T09:29:10;5.35;;;3.00;;
72379;SDS011;60354;47.798;12.472;2023-08-01T09:31:37;4.25;;;2.70;;
72379;SDS011;60354;47.798;12.472;2023-08-01T09:34:05;4.18;;;2.60;;
72379;SDS011;60354;47.798;12.472;2023-08-01T09:36:32;3.40;;;2.55;;
72379;SDS011;60354;47.798;12.472;2023-08-01T09:39:02;4.18;;;2.50;;
72379;SDS011;60354;47.798;12.472;2023-08-01T09:41:29;4.82;;;2.63;;
72379;SDS011;60354;47.798;12.472;2023-08-01T09:43:56;3.97;;;2.35;;
72379;SDS011;60354;47.798;12.472;2023-08-01T09:46:21;3.05;;;2.20;;
72379;SDS011;60354;47.798;12.472;2023-08-01T09:48:47;3.17;;;2.10;;
72379;SDS011;60354;47.798;12.472;2023-08-01T09:51:14;3.35;;;2.50;;
72379;SDS011;60354;47.798;12.472;2023-08-01T09:53:52;3.55;;;2.40;;
72379;SDS011;60354;47.798;12.472;2023-08-01T09:56:27;4.75;;;3.15;;
72379;SDS011;60354;47.798;12.472;2023-08-01T09:58:54;3.88;;;2.60;;
72379;SDS011;60354;47.798;12.472;2023-08-01T10:01:22;4.32;;;2.80;;
72379;SDS011;60354;47.798;12.472;2023-08-01T10:03:49;4.47;;;2.90;;
72379;SDS011;60354;47.798;12.472;2023-08-01T10:06:17;4.53;;;2.58;;
72379;SDS011;60354;47.798;12.472;2023-08-01T10:08:47;4.70;;;2.75;;
72379;SDS011;60354;47.798;12.472;2023-08-01T10:11:16;3.45;;;2.20;;
72379;SDS011;60354;47.798;12.472;2023-08-01T10:13:43;4.68;;;3.00;;
72379;SDS011;60354;47.798;12.472;2023-08-01T10:16:09;3.85;;;2.40;;
72379;SDS011;60354;47.798;12.472;2023-08-01T10:18:36;3.65;;;2.50;;
72379;SDS011;60354;47.798;12.472;2023-08-01T10:21:03;3.90;;;2.53;;
72379;SDS011;60354;47.798;12.472;2023-08-01T10:23:30;4.05;;;2.80;;
72379;SDS011;60354;47.798;12.472;2023-08-01T10:25:58;4.03;;;2.42;;
72379;SDS011;60354;47.798;12.472;2023-08-01T10:28:34;3.72;;;2.72;;
72379;SDS011;60354;47.798;12.472;2023-08-01T10:33:41;3.97;;;2.83;;
72379;SDS011;60354;47.798;12.472;2023-08-01T10:36:12;4.53;;;2.38;;
72379;SDS011;60354;47.798;12.472;2023-08-01T10:38:51;3.75;;;2.38;;
72379;SDS011;60354;47.798;12.472;2023-08-01T10:41:42;4.10;;;2.67;;
72379;SDS011;60354;47.798;12.472;2023-08-01T10:49:12;3.35;;;2.40;;
72379;SDS011;60354;47.798;12.472;2023-08-01T10:51:37;3.47;;;2.50;;
72379;SDS011;60354;47.798;12.472;2023-08-01T10:54:03;3.88;;;2.58;;
72379;SDS011;60354;47.798;12.472;2023-08-01T10:56:28;4.18;;;2.60;;
72379;SDS011;60354;47.798;12.472;2023-08-01T10:58:56;4.95;;;2.88;;
72379;SDS011;60354;47.798;12.472;2023-08-01T11:01:23;4.93;;;3.15;;
72379;SDS011;60354;47.798;12.472;2023-08-01T11:03:49;4.57;;;3.00;;
72379;SDS011;60354;47.798;12.472;2023-08-01T11:06:15;3.40;;;2.60;;
72379;SDS011;60354;47.798;12.472;2023-08-01T11:08:41;4.00;;;2.70;;
72379;SDS011;60354;47.798;12.472;2023-08-01T11:11:11;4.32;;;2.78;;
72379;SDS011;60354;47.798;12.472;2023-08-01T11:13:38;5.18;;;3.13;;
72379;SDS011;60354;47.798;12.472;2023-08-01T11:16:03;3.85;;;2.85;;
72379;SDS011;60354;47.798;12.472;2023-08-01T11:18:44;4.20;;;2.70;;
72379;SDS011;60354;47.798;12.472;2023-08-01T11:21:10;4.10;;;2.90;;
72379;SDS011;60354;47.798;12.472;2023-08-01T11:23:35;6.10;;;2.60;;
72379;SDS011;60354;47.798;12.472;2023-08-01T11:26:09;6.30;;;2.80;;
72379;SDS011;60354;47.798;12.472;2023-08-01T11:28:36;3.88;;;2.78;;
72379;SDS011;60354;47.798;12.472;2023-08-01T11:31:10;3.50;;;2.72;;
72379;SDS011;60354;47.798;12.472;2023-08-01T11:33:37;6.00;;;2.70;;
72379;SDS011;60354;47.798;12.472;2023-08-01T11:36:03;4.15;;;2.78;;
72379;SDS011;60354;47.798;12.472;2023-08-01T11:38:31;4.05;;;2.80;;
72379;SDS011;60354;47.798;12.472;2023-08-01T11:40:58;7.45;;;3.30;;
72379;SDS011;60354;47.798;12.472;2023-08-01T11:43:25;7.43;;;3.20;;
72379;SDS011;60354;47.798;12.472;2023-08-01T11:45:54;4.72;;;3.15;;
72379;SDS011;60354;47.798;12.472;2023-08-01T11:48:21;5.95;;;3.03;;
72379;SDS011;60354;47.798;12.472;2023-08-01T11:50:48;5.22;;;3.03;;
72379;SDS011;60354;47.798;12.472;2023-08-01T11:53:18;5.93;;;3.00;;
72379;SDS011;60354;47.798;12.472;2023-08-01T11:55:47;6.65;;;3.10;;
72379;SDS011;60354;47.798;12.472;2023-08-01T11:58:14;8.43;;;3.17;;
72379;SDS011;60354;47.798;12.472;2023-08-01T12:00:40;6.47;;;2.92;;
72379;SDS011;60354;47.798;12.472;2023-08-01T12:03:07;4.85;;;2.97;;
72379;SDS011;60354;47.798;12.472;2023-08-01T12:05:39;4.40;;;3.08;;
72379;SDS011;60354;47.798;12.472;2023-08-01T12:08:10;4.47;;;2.85;;
72379;SDS011;60354;47.798;12.472;2023-08-01T12:10:45;6.25;;;3.17;;
72379;SDS011;60354;47.798;12.472;2023-08-01T12:13:20;6.20;;;2.97;;
72379;SDS011;60354;47.798;12.472;2023-08-01T12:15:47;4.93;;;2.63;;
72379;SDS011;60354;47.798;12.472;2023-08-01T12:18:23;4.07;;;2.75;;
72379;SDS011;60354;47.798;12.472;2023-08-01T12:20:53;4.97;;;3.08;;
72379;SDS011;60354;47.798;12.472;2023-08-01T12:23:19;5.03;;;3.08;;
72379;SDS011;60354;47.798;12.472;2023-08-01T12:25:48;5.13;;;2.92;;
72379;SDS011;60354;47.798;12.472;2023-08-01T12:28:14;4.20;;;2.80;;
72379;SDS011;60354;47.798;12.472;2023-08-01T12:30:40;4.95;;;3.10;;
72379;SDS011;60354;47.798;12.472;2023-08-01T12:33:07;9.38;;;3.00;;
72379;SDS011;60354;47.798;12.472;2023-08-01T12:35:33;4.13;;;2.72;;
72379;SDS011;60354;47.798;12.472;2023-08-01T12:37:58;5.35;;;2.80;;
72379;SDS011;60354;47.798;12.472;2023-08-01T12:40:24;3.20;;;2.33;;
72379;SDS011;60354;47.798;12.472;2023-08-01T12:42:49;5.82;;;2.80;;
72379;SDS011;60354;47.798;12.472;2023-08-01T12:45:15;4.00;;;2.50;;
72379;SDS011;60354;47.798;12.472;2023-08-01T12:47:41;3.67;;;2.38;;
72379;SDS011;60354;47.798;12.472;2023-08-01T12:50:07;3.38;;;2.53;;
72379;SDS011;60354;47.798;12.472;2023-08-01T12:52:32;4.03;;;2.70;;
72379;SDS011;60354;47.798;12.472;2023-08-01T12:54:58;3.45;;;2.40;;
72379;SDS011;60354;47.798;12.472;2023-08-01T12:57:23;2.80;;;2.15;;
72379;SDS011;60354;47.798;12.472;2023-08-01T12:59:49;4.22;;;2.55;;
72379;SDS011;60354;47.798;12.472;2023-08-01T13:02:14;4.18;;;2.33;;
72379;SDS011;60354;47.798;12.472;2023-08-01T13:04:40;3.30;;;2.55;;
72379;SDS011;60354;47.798;12.472;2023-08-01T13:07:06;4.55;;;2.60;;
72379;SDS011;60354;47.798;12.472;2023-08-01T13:09:35;3.72;;;2.40;;
72379;SDS011;60354;47.798;12.472;2023-08-01T13:12:01;3.53;;;2.30;;
72379;SDS011;60354;47.798;12.472;2023-08-01T13:14:28;3.85;;;2.30;;
72379;SDS011;60354;47.798;12.472;2023-08-01T13:16:54;3.50;;;2.42;;
72379;SDS011;60354;47.798;12.472;2023-08-01T13:19:20;4.13;;;2.30;;
72379;SDS011;60354;47.798;12.472;2023-08-01T13:21:46;2.90;;;2.10;;
72379;SDS011;60354;47.798;12.472;2023-08-01T13:24:13;3.85;;;2.72;;
72379;SDS011;60354;47.798;12.472;2023-08-01T13:26:38;4.32;;;2.33;;
72379;SDS011;60354;47.798;12.472;2023-08-01T13:29:04;5.07;;;2.13;;
72379;SDS011;60354;47.798;12.472;2023-08-01T13:31:29;4.07;;;2.40;;
72379;SDS011;60354;47.798;12.472;2023-08-01T13:33:55;4.43;;;2.20;;
72379;SDS011;60354;47.798;12.472;2023-08-01T13:36:20;3.60;;;2.00;;
72379;SDS011;60354;47.798;12.472;2023-08-01T13:38:46;2.85;;;1.90;;
72379;SDS011;60354;47.798;12.472;2023-08-01T13:41:12;4.50;;;2.50;;
72379;SDS011;60354;47.798;12.472;2023-08-01T13:43:38;7.03;;;2.95;;
72379;SDS011;60354;47.798;12.472;2023-08-01T13:46:14;3.53;;;2.50;;
72379;SDS011;60354;47.798;12.472;2023-08-01T13:48:44;4.28;;;2.60;;
72379;SDS011;60354;47.798;12.472;2023-08-01T13:51:10;4.38;;;2.22;;
72379;SDS011;60354;47.798;12.472;2023-08-01T13:53:35;3.53;;;2.20;;
72379;SDS011;60354;47.798;12.472;2023-08-01T13:56:12;4.20;;;2.30;;
72379;SDS011;60354;47.798;12.472;2023-08-01T13:58:38;5.65;;;2.17;;
72379;SDS011;60354;47.798;12.472;2023-08-01T14:01:07;3.33;;;2.13;;
72379;SDS011;60354;47.798;12.472;2023-08-01T14:03:34;4.25;;;2.13;;
72379;SDS011;60354;47.798;12.472;2023-08-01T14:06:07;3.40;;;2.30;;
72379;SDS011;60354;47.798;12.472;2023-08-01T14:11:00;3.20;;;2.10;;
72379;SDS011;60354;47.798;12.472;2023-08-01T14:13:28;4.25;;;2.00;;
72379;SDS011;60354;47.798;12.472;2023-08-01T14:15:53;3.90;;;1.80;;
72379;SDS011;60354;47.798;12.472;2023-08-01T14:18:19;2.72;;;1.80;;
72379;SDS011;60354;47.798;12.472;2023-08-01T14:20:44;2.67;;;1.98;;
72379;SDS011;60354;47.798;12.472;2023-08-01T14:23:10;2.63;;;1.73;;
72379;SDS011;60354;47.798;12.472;2023-08-01T14:25:38;3.00;;;1.80;;
72379;SDS011;60354;47.798;12.472;2023-08-01T14:28:05;3.10;;;1.92;;
72379;SDS011;60354;47.798;12.472;2023-08-01T14:30:30;2.95;;;1.70;;
72379;SDS011;60354;47.798;12.472;2023-08-01T14:33:14;3.58;;;1.65;;
72379;SDS011;60354;47.798;12.472;2023-08-01T14:35:40;2.22;;;1.70;;
72379;SDS011;60354;47.798;12.472;2023-08-01T14:38:05;3.45;;;1.73;;